Arnett, Oklahoma
Current Conditions -  °F | °C
As of 9:21 PM on Saturday 22 Nov 2014 (Local Time) from KGAG Reporting Station
Broken Clouds Broken Clouds  
Wind Chill: 53°   Ceiling: 1000
Heat Index: 53°   Visibility: 10mi
Dew Point: 50°   Wind: 28mph
Humidity: 89%   Direction: 180°S
Pressure: 29.64"   Gusts: 37mph
Location:  36.14°N, 99.77°W
Report Text: KGAG 230321Z AUTO 18024G32KT 10SM BKN010 12/10 A2964 RMK AO2 PK WND 17034/0302 T01170100
Loading
Personal Weather Stations






























Interactive Weather Map New forecast layout! Learn more

10-Day Weather Forecast

Advertisements
Track Severe Weather on mobile